Time,TemperatureF,DewpointF,PressureIn,WindDirection,WindDirectionDegrees,WindSpeedMPH,WindSpeedGustMPH,Humidity,HourlyPrecipIn,Conditions,Clouds,dailyrainin,SolarRadiationWatts/m^2,SoftwareType,DateUTC
2013-02-28 00:00:00,15.2,6.2,30.37,SE,140,2.7,4.0,67,0.00,CLR,CLR,0.00,0.0,WeatherDisplay:10.37,2013-02-28 07:00:00,
2013-02-28 00:05:00,14.9,5.9,30.37,SE,144,2.4,4.0,67,0.00,CLR,CLR,0.00,0.0,WeatherDisplay:10.37,2013-02-28 07:05:00,
2013-02-28 00:10:00,14.7,5.7,30.37,SE,144,3.7,6.0,67,0.00,CLR,CLR,0.00,0.0,WeatherDisplay:10.37,2013-02-28 07:10:00,
2013-02-28 00:15:00,14.5,5.5,30.38,SE,143,4.4,5.8,67,0.00,CLR,CLR,0.00,0.0,WeatherDisplay:10.37,2013-02-28 07:15:00,
2013-02-28 00:20:00,14.3,5.3,30.38,SE,142,5.1,6.9,67,0.00,CLR,CLR,0.00,0.0,WeatherDisplay:10.37,2013-02-28 07:20:00,
2013-02-28 00:25:00,14.3,5.3,30.38,SE,141,2.8,4.6,67,0.00,CLR,CLR,0.00,0.0,WeatherDisplay:10.37,2013-02-28 07:25:00,
2013-02-28 00:30:00,14.1,5.1,30.38,SE,146,4.7,5.8,67,0.00,CLR,CLR,0.00,0.0,WeatherDisplay:10.37,2013-02-28 07:30:00,
2013-02-28 00:35:00,14.1,5.5,30.38,SE,144,3.4,3.4,68,0.00,CLR,CLR,0.00,0.0,WeatherDisplay:10.37,2013-02-28 07:35:00,
2013-02-28 00:40:00,14.0,5.4,30.38,SE,144,2.7,3.4,68,0.00,CLR,CLR,0.00,0.0,WeatherDisplay:10.37,2013-02-28 07:40:00,
2013-02-28 00:45:00,14.0,5.4,30.38,SE,144,3.6,4.6,68,0.00,CLR,CLR,0.00,0.0,WeatherDisplay:10.37,2013-02-28 07:45:00,
2013-02-28 00:50:00,14.0,5.4,30.39,SE,144,2.7,3.4,68,0.00,CLR,CLR,0.00,0.0,WeatherDisplay:10.37,2013-02-28 07:50:00,
2013-02-28 00:55:00,14.0,5.4,30.39,SE,144,3.2,4.6,68,0.00,CLR,CLR,0.00,0.0,WeatherDisplay:10.37,2013-02-28 07:55:00,
2013-02-28 01:00:00,13.9,5.3,30.39,SE,144,2.9,5.0,68,0.00,CLR,CLR,0.00,0.0,WeatherDisplay:10.37,2013-02-28 08:00:00,
2013-02-28 01:05:00,13.9,5.3,30.39,SE,144,3.7,4.6,68,0.00,CLR,CLR,0.00,0.0,WeatherDisplay:10.37,2013-02-28 08:05:00,
2013-02-28 01:10:00,13.9,5.3,30.40,SE,144,1.8,3.4,68,0.00,CLR,CLR,0.00,0.0,WeatherDisplay:10.37,2013-02-28 08:10:00,
2013-02-28 01:15:00,13.8,5.2,30.40,SE,144,0.4,2.3,68,0.00,CLR,CLR,0.00,0.0,WeatherDisplay:10.37,2013-02-28 08:15:00,
2013-02-28 01:20:00,13.7,5.1,30.39,SE,144,1.6,3.4,68,0.00,CLR,CLR,0.00,0.0,WeatherDisplay:10.37,2013-02-28 08:20:00,
2013-02-28 01:25:00,13.6,5.3,30.40,SE,144,3.8,6.0,69,0.00,CLR,CLR,0.00,0.0,WeatherDisplay:10.37,2013-02-28 08:25:00,
2013-02-28 01:30:00,13.5,5.2,30.40,SE,142,4.4,5.8,69,0.00,CLR,CLR,0.00,0.0,WeatherDisplay:10.37,2013-02-28 08:30:00,
2013-02-28 01:35:00,13.4,5.1,30.42,SE,141,3.0,3.4,69,0.00,CLR,CLR,0.00,0.0,WeatherDisplay:10.37,2013-02-28 08:35:00,
2013-02-28 01:40:00,13.3,5.0,30.41,SE,142,2.0,3.4,69,0.00,CLR,CLR,0.00,0.0,WeatherDisplay:10.37,2013-02-28 08:40:00,
2013-02-28 01:45:00,13.2,4.9,30.41,SE,146,3.1,4.0,69,0.00,CLR,CLR,0.00,0.0,WeatherDisplay:10.37,2013-02-28 08:45:00,
2013-02-28 01:50:00,13.1,4.8,30.42,SE,142,3.8,5.8,69,0.00,CLR,CLR,0.00,0.0,WeatherDisplay:10.37,2013-02-28 08:50:00,
2013-02-28 01:55:00,13.0,4.7,30.42,SE,143,2.7,3.4,69,0.00,CLR,CLR,0.00,0.0,WeatherDisplay:10.37,2013-02-28 08:55:00,
2013-02-28 02:00:00,13.0,4.7,30.42,SE,144,3.2,4.6,69,0.00,CLR,CLR,0.00,0.0,WeatherDisplay:10.37,2013-02-28 09:00:00,
2013-02-28 02:05:00,12.9,4.6,30.43,SE,144,1.8,3.4,69,0.00,CLR,CLR,0.00,0.0,WeatherDisplay:10.37,2013-02-28 09:05:00,
2013-02-28 02:10:00,12.8,4.5,30.43,SE,144,0.3,2.3,69,0.00,CLR,CLR,0.00,0.0,WeatherDisplay:10.37,2013-02-28 09:10:00,
2013-02-28 02:15:00,12.8,4.5,30.43,SE,144,0.8,2.3,69,0.00,CLR,CLR,0.00,0.0,WeatherDisplay:10.37,2013-02-28 09:15:00,
2013-02-28 02:20:00,12.8,4.5,30.43,SE,144,1.8,3.4,69,0.00,CLR,CLR,0.00,0.0,WeatherDisplay:10.37,2013-02-28 09:20:00,
2013-02-28 02:25:00,12.7,4.4,30.43,SE,143,0.4,1.1,69,0.00,CLR,CLR,0.00,0.0,WeatherDisplay:10.37,2013-02-28 09:25:00,
2013-02-28 02:30:00,12.7,4.4,30.43,SE,143,1.2,2.3,69,0.00,CLR,CLR,0.00,0.0,WeatherDisplay:10.37,2013-02-28 09:30:00,
2013-02-28 02:35:00,12.7,4.4,30.43,SE,142,0.0,2.3,69,0.00,CLR,CLR,0.00,0.0,WeatherDisplay:10.37,2013-02-28 09:35:00,
2013-02-28 02:40:00,12.7,4.8,30.42,SE,144,1.2,2.3,70,0.00,CLR,CLR,0.00,0.0,WeatherDisplay:10.37,2013-02-28 09:40:00,
2013-02-28 02:45:00,12.7,4.8,30.42,SE,143,1.2,5.0,70,0.00,CLR,CLR,0.00,0.0,WeatherDisplay:10.37,2013-02-28 09:45:00,
2013-02-28 02:50:00,12.6,4.7,30.42,SE,143,0.8,3.4,70,0.00,CLR,CLR,0.00,0.0,WeatherDisplay:10.37,2013-02-28 09:50:00,
2013-02-28 02:55:00,12.6,4.7,30.42,SE,144,1.8,3.4,70,0.00,CLR,CLR,0.00,0.0,WeatherDisplay:10.37,2013-02-28 09:55:00,
2013-02-28 03:00:00,12.6,4.7,30.42,SE,144,2.5,3.4,70,0.00,CLR,CLR,0.00,0.0,WeatherDisplay:10.37,2013-02-28 10:00:00,
2013-02-28 03:05:00,12.6,4.7,30.42,SE,144,3.4,4.6,70,0.00,CLR,CLR,0.00,0.0,WeatherDisplay:10.37,2013-02-28 10:05:00,
2013-02-28 03:10:00,12.5,4.6,30.42,SE,143,5.3,6.9,70,0.00,CLR,CLR,0.00,0.0,WeatherDisplay:10.37,2013-02-28 10:10:00,
2013-02-28 03:15:00,12.4,4.5,30.41,SE,144,3.9,5.8,70,0.00,CLR,CLR,0.00,0.0,WeatherDisplay:10.37,2013-02-28 10:15:00,
2013-02-28 03:20:00,12.3,4.4,30.41,SE,144,2.8,4.6,70,0.00,CLR,CLR,0.00,0.0,WeatherDisplay:10.37,2013-02-28 10:20:00,
2013-02-28 03:25:00,12.3,4.4,30.41,SE,144,1.1,3.4,70,0.00,CLR,CLR,0.00,0.0,WeatherDisplay:10.37,2013-02-28 10:25:00,
2013-02-28 03:30:00,12.2,4.3,30.41,SE,144,2.4,3.4,70,0.00,CLR,CLR,0.00,0.0,WeatherDisplay:10.37,2013-02-28 10:30:00,
2013-02-28 03:35:00,12.1,3.9,30.41,SE,144,2.5,3.4,69,0.00,CLR,CLR,0.00,0.0,WeatherDisplay:10.37,2013-02-28 10:35:00,
2013-02-28 03:40:00,12.1,3.9,30.41,SE,144,1.5,3.4,69,0.00,CLR,CLR,0.00,0.0,WeatherDisplay:10.37,2013-02-28 10:40:00,
2013-02-28 03:45:00,12.0,3.8,30.41,SE,144,0.1,1.1,69,0.00,CLR,CLR,0.00,0.0,WeatherDisplay:10.37,2013-02-28 10:45:00,
2013-02-28 03:50:00,11.9,3.7,30.40,SE,144,2.5,4.0,69,0.00,CLR,CLR,0.00,0.0,WeatherDisplay:10.37,2013-02-28 10:50:00,
2013-02-28 03:55:00,11.9,3.7,30.40,SE,144,2.6,3.4,69,0.00,CLR,CLR,0.00,0.0,WeatherDisplay:10.37,2013-02-28 10:55:00,
2013-02-28 04:00:00,11.8,3.6,30.40,SE,144,3.0,3.4,69,0.00,CLR,CLR,0.00,0.0,WeatherDisplay:10.37,2013-02-28 11:00:00,
2013-02-28 04:05:00,11.9,3.7,30.41,SE,144,3.2,3.4,69,0.00,CLR,CLR,0.00,0.0,WeatherDisplay:10.37,2013-02-28 11:05:00,
2013-02-28 04:10:00,11.9,3.7,30.41,SE,144,0.5,3.4,69,0.00,CLR,CLR,0.00,0.0,WeatherDisplay:10.37,2013-02-28 11:10:00,
2013-02-28 04:15:00,11.9,3.7,30.41,SE,144,3.0,3.4,69,0.00,CLR,CLR,0.00,0.0,WeatherDisplay:10.37,2013-02-28 11:15:00,
2013-02-28 04:20:00,11.9,3.7,30.41,SE,144,1.4,3.4,69,0.00,CLR,CLR,0.00,0.0,WeatherDisplay:10.37,2013-02-28 11:20:00,
2013-02-28 04:25:00,11.9,3.7,30.41,SE,145,2.5,4.0,69,0.00,CLR,CLR,0.00,0.0,WeatherDisplay:10.37,2013-02-28 11:25:00,
2013-02-28 04:30:00,11.9,3.7,30.41,SSE,147,3.9,5.8,69,0.00,CLR,CLR,0.00,0.0,WeatherDisplay:10.37,2013-02-28 11:30:00,
2013-02-28 04:35:00,11.9,3.7,30.41,SSE,148,3.5,6.0,69,0.00,CLR,CLR,0.00,0.0,WeatherDisplay:10.37,2013-02-28 11:35:00,
2013-02-28 04:40:00,11.8,3.3,30.41,SSE,148,3.6,5.0,68,0.00,CLR,CLR,0.00,0.0,WeatherDisplay:10.37,2013-02-28 11:40:00,
2013-02-28 04:45:00,11.7,3.2,30.41,SSE,148,2.1,3.4,68,0.00,CLR,CLR,0.00,0.0,WeatherDisplay:10.37,2013-02-28 11:45:00,
2013-02-28 04:50:00,11.6,3.1,30.41,SSE,148,3.5,4.6,68,0.00,CLR,CLR,0.00,0.0,WeatherDisplay:10.37,2013-02-28 11:50:00,
2013-02-28 04:55:00,11.6,3.4,30.41,SSE,150,2.0,4.0,69,0.00,CLR,CLR,0.00,0.0,WeatherDisplay:10.37,2013-02-28 11:55:00,
2013-02-28 05:00:00,11.6,3.4,30.41,SSE,153,3.3,6.0,69,0.00,CLR,CLR,0.00,0.0,WeatherDisplay:10.37,2013-02-28 12:00:00,
2013-02-28 05:05:00,11.6,3.1,30.43,SSE,148,3.5,5.0,68,0.00,CLR,CLR,0.00,0.0,WeatherDisplay:10.37,2013-02-28 12:05:00,
2013-02-28 05:10:00,11.5,3.0,30.43,SSE,148,3.2,4.6,68,0.00,CLR,CLR,0.00,0.0,WeatherDisplay:10.37,2013-02-28 12:10:00,
2013-02-28 05:15:00,11.5,3.0,30.43,SSE,148,3.2,4.6,68,0.00,CLR,CLR,0.00,0.0,WeatherDisplay:10.37,2013-02-28 12:15:00,
2013-02-28 05:20:00,11.4,2.9,30.43,SSE,148,4.4,5.8,68,0.00,CLR,CLR,0.00,0.0,WeatherDisplay:10.37,2013-02-28 12:20:00,
2013-02-28 05:25:00,11.5,3.0,30.44,SSE,148,4.0,4.6,68,0.00,CLR,CLR,0.00,0.0,WeatherDisplay:10.37,2013-02-28 12:25:00,
2013-02-28 05:30:00,11.6,3.1,30.43,SSE,148,2.3,3.4,68,0.00,CLR,CLR,0.00,0.0,WeatherDisplay:10.37,2013-02-28 12:30:00,
2013-02-28 05:35:00,11.7,3.2,30.43,SSE,148,0.7,2.3,68,0.00,CLR,CLR,0.00,0.0,WeatherDisplay:10.37,2013-02-28 12:35:00,
2013-02-28 05:40:00,11.8,3.3,30.43,SSE,148,1.3,3.4,68,0.00,CLR,CLR,0.00,0.0,WeatherDisplay:10.37,2013-02-28 12:40:00,
2013-02-28 05:45:00,11.9,3.4,30.44,SSE,148,1.4,3.4,68,0.00,CLR,CLR,0.00,0.0,WeatherDisplay:10.37,2013-02-28 12:45:00,
2013-02-28 05:50:00,12.1,3.6,30.44,SSE,153,1.5,4.0,68,0.00,CLR,CLR,0.00,0.0,WeatherDisplay:10.37,2013-02-28 12:50:00,
2013-02-28 05:55:00,12.7,4.4,30.42,SSE,159,2.1,3.4,69,0.00,CLR,CLR,0.00,0.0,WeatherDisplay:10.37,2013-02-28 12:55:00,
2013-02-28 06:00:00,13.6,5.0,30.41,SSW,200,1.1,3.4,68,0.00,CLR,CLR,0.00,0.0,WeatherDisplay:10.37,2013-02-28 13:00:00,
2013-02-28 06:05:00,14.3,5.0,30.43,South,184,0.5,2.3,66,0.00,FEW,FEW,0.00,0.0,WeatherDisplay:10.37,2013-02-28 13:05:00,
2013-02-28 06:10:00,14.8,5.2,30.41,SSE,150,0.5,2.3,65,0.00,FEW,FEW,0.00,0.0,WeatherDisplay:10.37,2013-02-28 13:10:00,
2013-02-28 06:15:00,15.2,5.2,30.42,SSE,150,0.8,2.3,64,0.00,FEW,FEW,0.00,0.0,WeatherDisplay:10.37,2013-02-28 13:15:00,
2013-02-28 06:20:00,15.4,5.0,30.42,SSE,152,1.2,2.3,63,0.00,FEW,FEW,0.00,0.0,WeatherDisplay:10.37,2013-02-28 13:20:00,
2013-02-28 06:25:00,15.6,4.9,30.42,SSE,153,0.7,2.3,62,0.00,FEW,FEW,0.00,0.0,WeatherDisplay:10.37,2013-02-28 13:25:00,
2013-02-28 06:30:00,15.7,4.6,30.42,South,186,1.8,3.4,61,0.00,FEW,FEW,0.00,0.0,WeatherDisplay:10.37,2013-02-28 13:30:00,
2013-02-28 06:35:00,16.1,5.0,30.42,SSW,196,1.3,3.4,61,0.00,FEW,FEW,0.00,7.0,WeatherDisplay:10.37,2013-02-28 13:35:00,
2013-02-28 06:40:00,16.4,4.9,30.42,SSW,203,1.3,3.4,60,0.00,FEW,FEW,0.00,11.0,WeatherDisplay:10.37,2013-02-28 13:40:00,
2013-02-28 06:45:00,16.8,4.9,30.41,South,187,3.1,5.8,59,0.00,FEW,FEW,0.00,14.0,WeatherDisplay:10.37,2013-02-28 13:45:00,
2013-02-28 06:50:00,17.2,4.9,30.41,SSW,192,1.9,3.4,58,0.00,FEW,FEW,0.00,21.0,WeatherDisplay:10.37,2013-02-28 13:50:00,
2013-02-28 06:55:00,17.6,5.3,30.41,South,176,1.1,3.4,58,0.00,FEW,FEW,0.00,42.0,WeatherDisplay:10.37,2013-02-28 13:55:00,
2013-02-28 07:00:00,17.8,5.1,30.41,South,176,1.7,3.4,57,0.00,FEW,FEW,0.00,65.0,WeatherDisplay:10.37,2013-02-28 14:00:00,
2013-02-28 07:05:00,18.0,4.9,30.41,South,182,1.2,3.4,56,0.00,FEW,FEW,0.00,79.0,WeatherDisplay:10.37,2013-02-28 14:05:00,
2013-02-28 07:10:00,18.4,4.9,30.41,SSW,205,2.1,4.6,55,0.00,FEW,FEW,0.00,93.0,WeatherDisplay:10.37,2013-02-28 14:10:00,
2013-02-28 07:15:00,18.9,5.0,30.42,SSW,192,2.1,3.4,54,0.00,FEW,FEW,0.00,109.0,WeatherDisplay:10.37,2013-02-28 14:15:00,
2013-02-28 07:20:00,19.6,5.2,30.40,SSW,195,1.5,4.0,53,0.00,FEW,FEW,0.00,130.0,WeatherDisplay:10.37,2013-02-28 14:20:00,
2013-02-28 07:25:00,20.0,5.6,30.41,South,184,2.0,3.4,53,0.00,FEW,FEW,0.00,144.0,WeatherDisplay:10.37,2013-02-28 14:25:00,
2013-02-28 07:30:00,20.2,5.8,30.41,South,184,2.3,3.4,53,0.00,FEW,FEW,0.00,160.0,WeatherDisplay:10.37,2013-02-28 14:30:00,
2013-02-28 07:35:00,19.9,5.5,30.41,South,178,2.2,3.4,53,0.00,FEW,FEW,0.00,179.0,WeatherDisplay:10.37,2013-02-28 14:35:00,
2013-02-28 07:40:00,19.7,5.3,30.40,SSE,162,3.4,4.6,53,0.00,FEW,FEW,0.00,195.0,WeatherDisplay:10.37,2013-02-28 14:40:00,
2013-02-28 07:45:00,19.7,5.7,30.40,SSE,162,2.6,3.4,54,0.00,FEW,FEW,0.00,211.0,WeatherDisplay:10.37,2013-02-28 14:45:00,
2013-02-28 07:50:00,19.7,6.1,30.41,SSE,162,2.9,3.4,55,0.00,FEW,FEW,0.00,229.0,WeatherDisplay:10.37,2013-02-28 14:50:00,
2013-02-28 07:55:00,20.0,6.0,30.41,SSE,161,0.5,2.3,54,0.00,FEW,FEW,0.00,244.0,WeatherDisplay:10.37,2013-02-28 14:55:00,
2013-02-28 08:00:00,20.8,7.2,30.41,SSE,162,0.1,1.0,55,0.00,FEW,FEW,0.00,262.0,WeatherDisplay:10.37,2013-02-28 15:00:00,
2013-02-28 08:05:00,21.8,7.7,30.41,SSE,162,0.0,1.1,54,0.00,FEW,FEW,0.00,279.0,WeatherDisplay:10.37,2013-02-28 15:05:00,
2013-02-28 08:10:00,22.7,7.3,30.40,SSE,162,0.0,0.0,51,0.00,FEW,FEW,0.00,297.0,WeatherDisplay:10.37,2013-02-28 15:10:00,
2013-02-28 08:15:00,23.6,8.1,30.40,SSE,161,2.3,4.6,51,0.00,FEW,FEW,0.00,313.0,WeatherDisplay:10.37,2013-02-28 15:15:00,
2013-02-28 08:20:00,24.0,8.0,30.40,SSE,162,2.6,3.4,50,0.00,FEW,FEW,0.00,329.0,WeatherDisplay:10.37,2013-02-28 15:20:00,
2013-02-28 08:25:00,24.1,7.7,30.40,SSE,151,5.2,6.9,49,0.00,FEW,FEW,0.00,345.0,WeatherDisplay:10.37,2013-02-28 15:25:00,
2013-02-28 08:30:00,24.3,7.9,30.40,SSE,152,0.1,1.1,49,0.00,FEW,FEW,0.00,360.0,WeatherDisplay:10.37,2013-02-28 15:30:00,
2013-02-28 08:35:00,24.8,7.9,30.39,SSE,152,3.8,4.6,48,0.00,FEW,FEW,0.00,376.0,WeatherDisplay:10.37,2013-02-28 15:35:00,
2013-02-28 08:40:00,25.5,8.5,30.39,SSE,152,2.2,4.6,48,0.00,FEW,FEW,0.00,392.0,WeatherDisplay:10.37,2013-02-28 15:40:00,
2013-02-28 08:45:00,26.3,9.2,30.39,SSE,152,1.3,3.4,48,0.00,FEW,FEW,0.00,403.0,WeatherDisplay:10.37,2013-02-28 15:45:00,
2013-02-28 08:50:00,27.3,9.7,30.38,SSE,152,3.0,4.0,47,0.00,FEW,FEW,0.00,417.0,WeatherDisplay:10.37,2013-02-28 15:50:00,
2013-02-28 08:55:00,28.0,9.9,30.38,SSE,152,0.0,0.0,46,0.00,FEW,FEW,0.00,441.0,WeatherDisplay:10.37,2013-02-28 15:55:00,
2013-02-28 09:00:00,28.7,10.0,30.36,SSE,152,1.1,2.3,45,0.00,FEW,FEW,0.00,459.0,WeatherDisplay:10.37,2013-02-28 16:00:00,
2013-02-28 09:05:00,29.5,10.2,30.38,SSE,152,0.6,2.3,44,0.00,SCT,SCT,0.00,473.0,WeatherDisplay:10.37,2013-02-28 16:05:00,
2013-02-28 09:10:00,30.0,10.2,30.38,SSE,152,0.8,2.3,43,0.00,SCT,SCT,0.00,487.0,WeatherDisplay:10.37,2013-02-28 16:10:00,
2013-02-28 09:15:00,30.5,10.1,30.37,SSE,152,1.3,3.4,42,0.00,SCT,SCT,0.00,501.0,WeatherDisplay:10.37,2013-02-28 16:15:00,
2013-02-28 09:20:00,31.4,9.3,30.37,SSE,154,0.6,3.0,39,0.00,SCT,SCT,0.00,515.0,WeatherDisplay:10.37,2013-02-28 16:20:00,
2013-02-28 09:25:00,32.2,9.4,30.37,SSW,200,2.8,4.6,38,0.00,SCT,SCT,0.00,527.0,WeatherDisplay:10.37,2013-02-28 16:25:00,
2013-02-28 09:30:00,32.7,8.6,30.36,SSW,201,0.5,3.4,36,0.00,SCT,SCT,0.00,543.0,WeatherDisplay:10.37,2013-02-28 16:30:00,
2013-02-28 09:35:00,32.9,8.8,30.36,SSW,201,0.6,2.3,36,0.00,SCT,SCT,0.00,557.0,WeatherDisplay:10.37,2013-02-28 16:35:00,
2013-02-28 09:40:00,33.7,9.5,30.36,SSW,200,0.8,3.4,36,0.00,SCT,SCT,0.00,573.0,WeatherDisplay:10.37,2013-02-28 16:40:00,
2013-02-28 09:45:00,34.1,9.3,30.36,SSW,200,1.8,3.4,35,0.00,SCT,SCT,0.00,599.0,WeatherDisplay:10.37,2013-02-28 16:45:00,
2013-02-28 09:50:00,34.4,8.2,30.37,SSW,201,0.8,3.4,33,0.00,SCT,SCT,0.00,656.0,WeatherDisplay:10.37,2013-02-28 16:50:00,
2013-02-28 09:55:00,34.4,8.9,30.37,SSW,200,0.4,1.1,34,0.00,SCT,SCT,0.00,552.0,WeatherDisplay:10.37,2013-02-28 16:55:00,
2013-02-28 10:00:00,34.9,10.0,30.36,SSW,201,1.7,3.4,35,0.00,SCT,SCT,0.00,415.0,WeatherDisplay:10.37,2013-02-28 17:00:00,
2013-02-28 10:05:00,35.2,8.9,30.38,SSW,205,2.0,3.4,33,0.00,SCT,SCT,0.00,689.0,WeatherDisplay:10.37,2013-02-28 17:05:00,
2013-02-28 10:10:00,35.7,8.7,30.37,SW,220,2.0,3.4,32,0.00,SCT,SCT,0.00,668.0,WeatherDisplay:10.37,2013-02-28 17:10:00,
2013-02-28 10:15:00,36.1,9.0,30.37,SW,221,2.2,3.4,32,0.00,SCT,SCT,0.00,795.0,WeatherDisplay:10.37,2013-02-28 17:15:00,
2013-02-28 10:20:00,36.4,8.6,30.37,SW,223,1.1,2.3,31,0.00,SCT,SCT,0.00,578.0,WeatherDisplay:10.37,2013-02-28 17:20:00,
2013-02-28 10:25:00,36.5,10.1,30.36,SW,222,0.1,1.1,33,0.00,SCT,SCT,0.00,369.0,WeatherDisplay:10.37,2013-02-28 17:25:00,
2013-02-28 10:30:00,37.1,9.9,30.37,SW,222,0.0,0.0,32,0.00,SCT,SCT,0.00,765.0,WeatherDisplay:10.37,2013-02-28 17:30:00,
2013-02-28 10:35:00,38.2,11.6,30.36,SW,222,0.2,2.3,33,0.00,SCT,SCT,0.00,721.0,WeatherDisplay:10.37,2013-02-28 17:35:00,
2013-02-28 10:40:00,38.5,10.4,30.35,SSW,194,2.8,3.4,31,0.00,SCT,SCT,0.00,703.0,WeatherDisplay:10.37,2013-02-28 17:40:00,
2013-02-28 10:45:00,38.6,9.0,30.35,SSE,163,1.0,3.4,29,0.00,SCT,SCT,0.00,738.0,WeatherDisplay:10.37,2013-02-28 17:45:00,
2013-02-28 10:50:00,39.4,11.2,30.35,SSE,163,0.9,2.3,31,0.00,SCT,SCT,0.00,886.0,WeatherDisplay:10.37,2013-02-28 17:50:00,
2013-02-28 10:55:00,40.0,10.3,30.34,SSE,163,1.0,2.3,29,0.00,SCT,SCT,0.00,886.0,WeatherDisplay:10.37,2013-02-28 17:55:00,
2013-02-28 11:00:00,40.0,8.7,30.34,SSE,163,1.1,3.4,27,0.00,SCT,SCT,0.00,731.0,WeatherDisplay:10.37,2013-02-28 18:00:00,
2013-02-28 11:05:00,40.0,7.8,30.36,SSE,168,0.5,2.3,26,0.00,BKN,BKN,0.00,788.0,WeatherDisplay:10.37,2013-02-28 18:05:00,
2013-02-28 11:10:00,40.2,8.8,30.36,South,172,2.4,4.6,27,0.00,BKN,BKN,0.00,925.0,WeatherDisplay:10.37,2013-02-28 18:10:00,
2013-02-28 11:15:00,40.4,8.2,30.36,SSW,192,3.5,4.6,26,0.00,BKN,BKN,0.00,691.0,WeatherDisplay:10.37,2013-02-28 18:15:00,
2013-02-28 11:20:00,40.2,8.8,30.36,South,191,1.9,6.9,27,0.00,BKN,BKN,0.00,396.0,WeatherDisplay:10.37,2013-02-28 18:20:00,
2013-02-28 11:25:00,40.2,10.4,30.35,South,191,1.9,3.4,29,0.00,BKN,BKN,0.00,499.0,WeatherDisplay:10.37,2013-02-28 18:25:00,
2013-02-28 11:30:00,40.4,9.0,30.35,South,189,1.7,3.4,27,0.00,BKN,BKN,0.00,742.0,WeatherDisplay:10.37,2013-02-28 18:30:00,
2013-02-28 11:35:00,40.7,9.3,30.34,WNW,295,0.5,2.3,27,0.00,BKN,BKN,0.00,555.0,WeatherDisplay:10.37,2013-02-28 18:35:00,
2013-02-28 11:40:00,41.0,9.5,30.33,WSW,245,0.3,3.4,27,0.00,BKN,BKN,0.00,802.0,WeatherDisplay:10.37,2013-02-28 18:40:00,
2013-02-28 11:45:00,41.6,10.0,30.33,WSW,240,2.9,4.0,27,0.00,BKN,BKN,0.00,763.0,WeatherDisplay:10.37,2013-02-28 18:45:00,
2013-02-28 11:50:00,41.5,9.9,30.33,NW,304,1.0,4.6,27,0.00,BKN,BKN,0.00,788.0,WeatherDisplay:10.37,2013-02-28 18:50:00,
2013-02-28 11:55:00,41.5,10.8,30.33,NNW,344,1.8,3.4,28,0.00,BKN,BKN,0.00,765.0,WeatherDisplay:10.37,2013-02-28 18:55:00,
2013-02-28 12:00:00,41.5,11.6,30.33,NW,324,2.1,4.6,29,0.00,BKN,BKN,0.00,768.0,WeatherDisplay:10.37,2013-02-28 19:00:00,
2013-02-28 12:05:00,41.7,10.9,30.33,WSW,244,1.3,6.9,28,0.00,BKN,BKN,0.00,772.0,WeatherDisplay:10.37,2013-02-28 19:05:00,
2013-02-28 12:10:00,41.9,11.9,30.33,WNW,289,2.5,5.0,29,0.00,BKN,BKN,0.00,802.0,WeatherDisplay:10.37,2013-02-28 19:10:00,
2013-02-28 12:15:00,42.2,11.4,30.32,NW,317,3.9,9.2,28,0.00,BKN,BKN,0.00,809.0,WeatherDisplay:10.37,2013-02-28 19:15:00,
2013-02-28 12:20:00,42.4,10.7,30.32,WNW,297,4.7,10.3,27,0.00,BKN,BKN,0.00,643.0,WeatherDisplay:10.37,2013-02-28 19:20:00,
2013-02-28 12:25:00,42.2,11.4,30.32,WNW,286,6.2,12.0,28,0.00,BKN,BKN,0.00,772.0,WeatherDisplay:10.37,2013-02-28 19:25:00,
2013-02-28 12:30:00,42.1,11.3,30.32,NNW,331,6.4,10.3,28,0.00,BKN,BKN,0.00,504.0,WeatherDisplay:10.37,2013-02-28 19:30:00,
2013-02-28 12:35:00,41.5,10.8,30.31,NW,322,11.1,14.9,28,0.00,BKN,BKN,0.00,675.0,WeatherDisplay:10.37,2013-02-28 19:35:00,
2013-02-28 12:40:00,41.1,10.4,30.33,NW,307,10.3,18.4,28,0.00,BKN,BKN,0.00,661.0,WeatherDisplay:10.37,2013-02-28 19:40:00,
2013-02-28 12:45:00,40.9,10.2,30.32,NNW,334,9.7,14.9,28,0.00,BKN,BKN,0.00,571.0,WeatherDisplay:10.37,2013-02-28 19:45:00,
2013-02-28 12:50:00,40.8,10.9,30.32,NW,309,2.6,6.9,29,0.00,BKN,BKN,0.00,606.0,WeatherDisplay:10.37,2013-02-28 19:50:00,
2013-02-28 12:55:00,41.5,10.8,30.31,WNW,289,8.4,12.0,28,0.00,BKN,BKN,0.00,666.0,WeatherDisplay:10.37,2013-02-28 19:55:00,
2013-02-28 13:00:00,41.9,11.1,30.30,NNW,336,4.0,6.9,28,0.00,BKN,BKN,0.00,534.0,WeatherDisplay:10.37,2013-02-28 20:00:00,
2013-02-28 13:05:00,42.4,10.7,30.30,NW,306,7.9,12.6,27,0.00,BKN,BKN,0.00,654.0,WeatherDisplay:10.37,2013-02-28 20:05:00,
2013-02-28 13:10:00,42.6,12.5,30.29,WNW,296,4.9,10.3,29,0.00,BKN,BKN,0.00,552.0,WeatherDisplay:10.37,2013-02-28 20:10:00,
2013-02-28 13:15:00,42.7,11.8,30.29,WNW,301,10.2,16.1,28,0.00,BKN,BKN,0.00,490.0,WeatherDisplay:10.37,2013-02-28 20:15:00,
2013-02-28 13:20:00,42.5,11.6,30.28,WNW,288,5.4,10.3,28,0.00,BKN,BKN,0.00,424.0,WeatherDisplay:10.37,2013-02-28 20:20:00,
2013-02-28 13:25:00,42.3,12.3,30.29,West,276,10.8,19.5,29,0.00,BKN,BKN,0.00,450.0,WeatherDisplay:10.37,2013-02-28 20:25:00,
2013-02-28 13:30:00,42.1,12.1,30.29,West,271,4.0,9.2,29,0.00,BKN,BKN,0.00,338.0,WeatherDisplay:10.37,2013-02-28 20:30:00,
2013-02-28 13:35:00,42.0,11.2,30.29,NNW,337,9.2,17.3,28,0.00,BKN,BKN,0.00,315.0,WeatherDisplay:10.37,2013-02-28 20:35:00,
2013-02-28 13:40:00,41.5,11.6,30.29,NW,315,8.2,15.0,29,0.00,BKN,BKN,0.00,489.0,WeatherDisplay:10.37,2013-02-28 20:40:00,
2013-02-28 13:45:00,41.3,10.6,30.28,WNW,288,10.2,18.4,28,0.00,BKN,BKN,0.00,297.0,WeatherDisplay:10.37,2013-02-28 20:45:00,
2013-02-28 13:50:00,40.9,11.0,30.28,NW,313,9.9,17.3,29,0.00,BKN,BKN,0.00,547.0,WeatherDisplay:10.37,2013-02-28 20:50:00,
2013-02-28 13:55:00,41.2,11.3,30.28,NW,309,9.1,18.4,29,0.00,BKN,BKN,0.00,380.0,WeatherDisplay:10.37,2013-02-28 20:55:00,
2013-02-28 14:00:00,41.1,10.4,30.28,WNW,286,9.9,17.3,28,0.00,BKN,BKN,0.00,436.0,WeatherDisplay:10.37,2013-02-28 21:00:00,
2013-02-28 14:05:00,41.1,11.2,30.28,NW,326,9.3,17.3,29,0.00,BKN,BKN,0.00,577.0,WeatherDisplay:10.37,2013-02-28 21:05:00,
2013-02-28 14:10:00,41.2,11.3,30.27,NW,306,10.9,19.5,29,0.00,BKN,BKN,0.00,302.0,WeatherDisplay:10.37,2013-02-28 21:10:00,
2013-02-28 14:15:00,41.0,11.1,30.28,NW,320,10.9,17.3,29,0.00,BKN,BKN,0.00,464.0,WeatherDisplay:10.37,2013-02-28 21:15:00,
2013-02-28 14:20:00,41.2,12.1,30.27,WNW,296,11.4,19.5,30,0.00,BKN,BKN,0.00,631.0,WeatherDisplay:10.37,2013-02-28 21:20:00,
2013-02-28 14:25:00,41.5,11.6,30.27,WNW,293,11.9,25.3,29,0.00,BKN,BKN,0.00,577.0,WeatherDisplay:10.37,2013-02-28 21:25:00,
2013-02-28 14:30:00,42.0,13.5,30.27,WNW,294,5.6,14.9,31,0.00,BKN,BKN,0.00,591.0,WeatherDisplay:10.37,2013-02-28 21:30:00,
2013-02-28 14:35:00,42.5,12.4,30.26,NW,318,13.2,17.3,29,0.00,BKN,BKN,0.00,540.0,WeatherDisplay:10.37,2013-02-28 21:35:00,
2013-02-28 14:40:00,42.0,12.0,30.27,WNW,292,14.6,20.7,29,0.00,BKN,BKN,0.00,441.0,WeatherDisplay:10.37,2013-02-28 21:40:00,
2013-02-28 14:45:00,41.6,12.4,30.27,WNW,290,11.8,16.1,30,0.00,BKN,BKN,0.00,483.0,WeatherDisplay:10.37,2013-02-28 21:45:00,
2013-02-28 14:50:00,41.5,12.3,30.27,WNW,294,11.6,18.4,30,0.00,BKN,BKN,0.00,338.0,WeatherDisplay:10.37,2013-02-28 21:50:00,
2013-02-28 14:55:00,41.3,12.1,30.27,WNW,299,13.0,18.4,30,0.00,BKN,BKN,0.00,332.0,WeatherDisplay:10.37,2013-02-28 21:55:00,
2013-02-28 15:00:00,41.3,12.9,30.27,NW,325,6.4,12.6,31,0.00,BKN,BKN,0.00,308.0,WeatherDisplay:10.37,2013-02-28 22:00:00,
2013-02-28 15:05:00,41.2,12.8,30.28,WNW,302,10.3,17.0,31,0.00,BKN,BKN,0.00,403.0,WeatherDisplay:10.37,2013-02-28 22:05:00,
2013-02-28 15:10:00,41.1,12.7,30.28,NNW,327,14.3,20.7,31,0.00,BKN,BKN,0.00,432.0,WeatherDisplay:10.37,2013-02-28 22:10:00,
2013-02-28 15:15:00,41.1,13.4,30.28,WNW,290,11.4,17.3,32,0.00,BKN,BKN,0.00,411.0,WeatherDisplay:10.37,2013-02-28 22:15:00,
2013-02-28 15:20:00,41.3,13.6,30.28,NW,322,10.2,18.4,32,0.00,BKN,BKN,0.00,404.0,WeatherDisplay:10.37,2013-02-28 22:20:00,
2013-02-28 15:25:00,41.2,13.5,30.29,NW,304,11.4,25.3,32,0.00,BKN,BKN,0.00,311.0,WeatherDisplay:10.37,2013-02-28 22:25:00,
2013-02-28 15:30:00,41.0,13.4,30.29,West,275,14.6,23.0,32,0.00,BKN,BKN,0.00,325.0,WeatherDisplay:10.37,2013-02-28 22:30:00,
2013-02-28 15:35:00,40.8,13.2,30.28,WNW,286,13.0,19.5,32,0.00,BKN,BKN,0.00,276.0,WeatherDisplay:10.37,2013-02-28 22:35:00,
2013-02-28 15:40:00,40.6,13.7,30.28,NW,323,10.7,14.9,33,0.00,BKN,BKN,0.00,329.0,WeatherDisplay:10.37,2013-02-28 22:40:00,
2013-02-28 15:45:00,40.5,13.6,30.29,NW,304,9.2,16.1,33,0.00,BKN,BKN,0.00,265.0,WeatherDisplay:10.37,2013-02-28 22:45:00,
2013-02-28 15:50:00,40.3,13.4,30.29,NW,319,14.1,21.0,33,0.00,BKN,BKN,0.00,185.0,WeatherDisplay:10.37,2013-02-28 22:50:00,
2013-02-28 15:55:00,40.1,14.6,30.29,NW,313,11.7,21.9,35,0.00,BKN,BKN,0.00,376.0,WeatherDisplay:10.37,2013-02-28 22:55:00,
2013-02-28 16:00:00,40.2,13.3,30.30,WNW,287,10.2,18.4,33,0.00,BKN,BKN,0.00,373.0,WeatherDisplay:10.37,2013-02-28 23:00:00,
2013-02-28 16:05:00,40.4,14.2,30.30,NW,323,11.6,18.4,34,0.00,BKN,BKN,0.00,357.0,WeatherDisplay:10.37,2013-02-28 23:05:00,
2013-02-28 16:10:00,40.4,14.2,30.30,NW,321,8.3,17.3,34,0.00,BKN,BKN,0.00,304.0,WeatherDisplay:10.37,2013-02-28 23:10:00,
2013-02-28 16:15:00,40.5,14.3,30.30,NW,310,10.3,18.4,34,0.00,BKN,BKN,0.00,269.0,WeatherDisplay:10.37,2013-02-28 23:15:00,
2013-02-28 16:20:00,40.5,13.6,30.30,NW,304,10.9,16.1,33,0.00,BKN,BKN,0.00,323.0,WeatherDisplay:10.37,2013-02-28 23:20:00,
2013-02-28 16:25:00,40.4,13.5,30.30,NW,304,12.2,14.9,33,0.00,BKN,BKN,0.00,290.0,WeatherDisplay:10.37,2013-02-28 23:25:00,
2013-02-28 16:30:00,40.2,13.3,30.30,NW,319,13.8,18.4,33,0.00,BKN,BKN,0.00,162.0,WeatherDisplay:10.37,2013-02-28 23:30:00,
2013-02-28 16:35:00,40.0,13.8,30.30,NNW,334,5.2,10.0,34,0.00,BKN,BKN,0.00,158.0,WeatherDisplay:10.37,2013-02-28 23:35:00,
2013-02-28 16:40:00,39.7,13.6,30.30,NW,306,8.3,13.8,34,0.00,BKN,BKN,0.00,125.0,WeatherDisplay:10.37,2013-02-28 23:40:00,
2013-02-28 16:45:00,39.4,13.3,30.31,WNW,294,8.3,11.5,34,0.00,BKN,BKN,0.00,116.0,WeatherDisplay:10.37,2013-02-28 23:45:00,
2013-02-28 16:50:00,39.1,13.7,30.32,NNW,331,5.6,9.0,35,0.00,BKN,BKN,0.00,146.0,WeatherDisplay:10.37,2013-02-28 23:50:00,
2013-02-28 16:55:00,38.9,13.5,30.31,NW,324,7.7,12.0,35,0.00,BKN,BKN,0.00,90.0,WeatherDisplay:10.37,2013-02-28 23:55:00,
2013-02-28 17:00:00,38.7,14.0,30.32,NW,309,5.1,9.2,36,0.00,BKN,BKN,0.00,93.0,WeatherDisplay:10.37,2013-03-01 00:00:00,
2013-02-28 17:05:00,38.6,13.9,30.31,NW,305,7.4,12.6,36,0.00,BKN,BKN,0.00,83.0,WeatherDisplay:10.37,2013-03-01 00:05:00,
2013-02-28 17:10:00,38.4,14.4,30.32,NW,315,5.2,11.5,37,0.00,BKN,BKN,0.00,60.0,WeatherDisplay:10.37,2013-03-01 00:10:00,
2013-02-28 17:15:00,38.3,14.3,30.31,NW,318,6.0,9.2,37,0.00,BKN,BKN,0.00,40.0,WeatherDisplay:10.37,2013-03-01 00:15:00,
2013-02-28 17:20:00,38.1,14.1,30.32,WNW,296,8.3,13.8,37,0.00,BKN,BKN,0.00,37.0,WeatherDisplay:10.37,2013-03-01 00:20:00,
2013-02-28 17:25:00,38.0,14.6,30.32,NW,317,7.4,12.0,38,0.00,BKN,BKN,0.00,30.0,WeatherDisplay:10.37,2013-03-01 00:25:00,
2013-02-28 17:30:00,37.9,14.5,30.32,NW,326,6.6,11.5,38,0.00,BKN,BKN,0.00,26.0,WeatherDisplay:10.37,2013-03-01 00:30:00,
2013-02-28 17:35:00,37.8,14.4,30.32,NW,310,4.1,4.6,38,0.00,BKN,BKN,0.00,14.0,WeatherDisplay:10.37,2013-03-01 00:35:00,
2013-02-28 17:40:00,37.7,14.3,30.32,WNW,300,5.9,10.3,38,0.00,BKN,BKN,0.00,9.0,WeatherDisplay:10.37,2013-03-01 00:40:00,
2013-02-28 17:45:00,37.5,14.8,30.33,West,280,5.5,10.0,39,0.00,BKN,BKN,0.00,5.0,WeatherDisplay:10.37,2013-03-01 00:45:00,
2013-02-28 17:50:00,37.4,14.7,30.34,WNW,294,11.2,19.5,39,0.00,BKN,BKN,0.00,0.0,WeatherDisplay:10.37,2013-03-01 00:50:00,
2013-02-28 17:55:00,37.3,14.6,30.33,WNW,288,12.1,20.7,39,0.00,BKN,BKN,0.00,0.0,WeatherDisplay:10.37,2013-03-01 00:55:00,
2013-02-28 18:00:00,37.1,14.4,30.34,NW,306,6.2,11.5,39,0.00,BKN,BKN,0.00,0.0,WeatherDisplay:10.37,2013-03-01 01:00:00,
2013-02-28 18:05:00,37.0,14.3,30.31,NNW,329,5.0,10.3,39,0.00,BKN,BKN,0.00,0.0,WeatherDisplay:10.37,2013-03-01 01:05:00,
2013-02-28 18:10:00,36.8,14.1,30.31,WNW,285,4.1,11.5,39,0.00,BKN,BKN,0.00,0.0,WeatherDisplay:10.37,2013-03-01 01:10:00,
2013-02-28 18:15:00,36.7,14.6,30.31,WNW,300,2.2,4.6,40,0.00,BKN,BKN,0.00,0.0,WeatherDisplay:10.37,2013-03-01 01:15:00,
2013-02-28 18:20:00,36.6,13.9,30.31,NW,306,2.7,9.2,39,0.00,BKN,BKN,0.00,0.0,WeatherDisplay:10.37,2013-03-01 01:20:00,
2013-02-28 18:25:00,36.6,13.9,30.31,WNW,302,6.6,11.5,39,0.00,BKN,BKN,0.00,0.0,WeatherDisplay:10.37,2013-03-01 01:25:00,
2013-02-28 18:30:00,36.6,14.5,30.32,WNW,295,1.9,4.0,40,0.00,BKN,BKN,0.00,0.0,WeatherDisplay:10.37,2013-03-01 01:30:00,
2013-02-28 18:35:00,36.5,14.4,30.32,WNW,287,2.6,6.0,40,0.00,BKN,BKN,0.00,0.0,WeatherDisplay:10.37,2013-03-01 01:35:00,
2013-02-28 18:40:00,36.4,14.3,30.31,WNW,299,2.8,5.8,40,0.00,BKN,BKN,0.00,0.0,WeatherDisplay:10.37,2013-03-01 01:40:00,
2013-02-28 18:45:00,36.4,14.3,30.32,West,279,9.6,14.9,40,0.00,BKN,BKN,0.00,0.0,WeatherDisplay:10.37,2013-03-01 01:45:00,
2013-02-28 18:50:00,36.4,14.3,30.32,WNW,290,4.8,10.3,40,0.00,BKN,BKN,0.00,0.0,WeatherDisplay:10.37,2013-03-01 01:50:00,
2013-02-28 18:55:00,36.4,13.8,30.32,NW,314,8.7,12.6,39,0.00,BKN,BKN,0.00,0.0,WeatherDisplay:10.37,2013-03-01 01:55:00,
2013-02-28 19:00:00,36.5,13.9,30.33,WNW,298,6.2,14.9,39,0.00,BKN,BKN,0.00,0.0,WeatherDisplay:10.37,2013-03-01 02:00:00,
2013-02-28 19:05:00,36.4,13.8,30.30,WNW,290,4.7,6.9,39,0.00,BKN,BKN,0.00,0.0,WeatherDisplay:10.37,2013-03-01 02:05:00,
2013-02-28 19:10:00,36.4,13.8,30.32,NW,314,5.9,12.6,39,0.00,BKN,BKN,0.00,0.0,WeatherDisplay:10.37,2013-03-01 02:10:00,
2013-02-28 19:15:00,36.4,14.3,30.32,NNW,335,5.1,10.3,40,0.00,BKN,BKN,0.00,0.0,WeatherDisplay:10.37,2013-03-01 02:15:00,
2013-02-28 19:20:00,36.5,13.9,30.31,WNW,291,3.2,5.8,39,0.00,BKN,BKN,0.00,0.0,WeatherDisplay:10.37,2013-03-01 02:20:00,
2013-02-28 19:25:00,36.5,14.4,30.31,WNW,300,2.2,4.6,40,0.00,BKN,BKN,0.00,0.0,WeatherDisplay:10.37,2013-03-01 02:25:00,
2013-02-28 19:30:00,36.5,13.9,30.31,NW,322,5.5,10.3,39,0.00,BKN,BKN,0.00,0.0,WeatherDisplay:10.37,2013-03-01 02:30:00,
2013-02-28 19:35:00,36.5,13.9,30.31,West,281,3.4,6.9,39,0.00,BKN,BKN,0.00,0.0,WeatherDisplay:10.37,2013-03-01 02:35:00,
2013-02-28 19:40:00,36.6,13.9,30.31,WNW,296,5.4,10.3,39,0.00,BKN,BKN,0.00,0.0,WeatherDisplay:10.37,2013-03-01 02:40:00,
2013-02-28 19:45:00,36.7,14.0,30.31,NW,315,2.5,4.6,39,0.00,BKN,BKN,0.00,0.0,WeatherDisplay:10.37,2013-03-01 02:45:00,
2013-02-28 19:50:00,36.8,14.1,30.32,NW,305,5.7,11.5,39,0.00,BKN,BKN,0.00,0.0,WeatherDisplay:10.37,2013-03-01 02:50:00,
2013-02-28 19:55:00,36.8,13.5,30.31,WNW,299,4.4,11.5,38,0.00,BKN,BKN,0.00,0.0,WeatherDisplay:10.37,2013-03-01 02:55:00,
2013-02-28 20:00:00,36.9,14.2,30.32,NW,311,5.9,11.5,39,0.00,BKN,BKN,0.00,0.0,WeatherDisplay:10.37,2013-03-01 03:00:00,
2013-02-28 20:05:00,37.1,13.8,30.26,WNW,287,7.3,12.6,38,0.00,BKN,BKN,0.00,0.0,WeatherDisplay:10.37,2013-03-01 03:05:00,
2013-02-28 20:10:00,37.2,14.5,30.27,WNW,296,4.4,14.0,39,0.00,BKN,BKN,0.00,0.0,WeatherDisplay:10.37,2013-03-01 03:10:00,
2013-02-28 20:15:00,37.2,13.9,30.27,WNW,298,6.7,11.5,38,0.00,BKN,BKN,0.00,0.0,WeatherDisplay:10.37,2013-03-01 03:15:00,
2013-02-28 20:20:00,37.3,14.0,30.27,WNW,286,5.4,13.0,38,0.00,BKN,BKN,0.00,0.0,WeatherDisplay:10.37,2013-03-01 03:20:00,
2013-02-28 20:25:00,37.2,14.5,30.27,WNW,285,4.2,12.6,39,0.00,BKN,BKN,0.00,0.0,WeatherDisplay:10.37,2013-03-01 03:25:00,
2013-02-28 20:30:00,37.1,14.4,30.27,NW,317,6.7,10.3,39,0.00,BKN,BKN,0.00,0.0,WeatherDisplay:10.37,2013-03-01 03:30:00,
2013-02-28 20:35:00,37.1,14.4,30.27,NW,310,6.3,11.5,39,0.00,BKN,BKN,0.00,0.0,WeatherDisplay:10.37,2013-03-01 03:35:00,
2013-02-28 20:40:00,37.0,14.3,30.27,WNW,303,1.1,2.3,39,0.00,BKN,BKN,0.00,0.0,WeatherDisplay:10.37,2013-03-01 03:40:00,
2013-02-28 20:45:00,36.9,14.2,30.28,NW,307,2.6,4.6,39,0.00,BKN,BKN,0.00,0.0,WeatherDisplay:10.37,2013-03-01 03:45:00,
2013-02-28 20:50:00,36.8,14.1,30.28,NNW,348,4.6,6.9,39,0.00,BKN,BKN,0.00,0.0,WeatherDisplay:10.37,2013-03-01 03:50:00,
2013-02-28 20:55:00,36.7,14.6,30.28,North,9,2.0,7.0,40,0.00,BKN,BKN,0.00,0.0,WeatherDisplay:10.37,2013-03-01 03:55:00,
2013-02-28 21:00:00,36.6,15.1,30.28,North,351,1.1,3.4,41,0.00,BKN,BKN,0.00,0.0,WeatherDisplay:10.37,2013-03-01 04:00:00,
2013-02-28 21:05:00,36.5,14.4,30.25,North,5,0.5,2.3,40,0.00,BKN,BKN,0.00,0.0,WeatherDisplay:10.37,2013-03-01 04:05:00,
2013-02-28 21:10:00,36.3,14.8,30.26,North,5,0.5,2.3,41,0.00,BKN,BKN,0.00,0.0,WeatherDisplay:10.37,2013-03-01 04:10:00,
2013-02-28 21:15:00,36.2,15.3,30.26,North,360,0.0,0.0,42,0.00,BKN,BKN,0.00,0.0,WeatherDisplay:10.37,2013-03-01 04:15:00,
2013-02-28 21:20:00,36.0,15.1,30.25,North,5,0.2,1.1,42,0.00,BKN,BKN,0.00,0.0,WeatherDisplay:10.37,2013-03-01 04:20:00,
2013-02-28 21:25:00,35.8,14.9,30.25,North,5,0.5,2.3,42,0.00,BKN,BKN,0.00,0.0,WeatherDisplay:10.37,2013-03-01 04:25:00,
2013-02-28 21:30:00,35.6,14.7,30.25,North,360,0.0,0.0,42,0.00,BKN,BKN,0.00,0.0,WeatherDisplay:10.37,2013-03-01 04:30:00,
2013-02-28 21:35:00,35.5,14.6,30.25,North,5,0.0,0.0,42,0.00,BKN,BKN,0.00,0.0,WeatherDisplay:10.37,2013-03-01 04:35:00,
2013-02-28 21:40:00,35.3,14.5,30.25,North,5,0.1,2.0,42,0.00,BKN,BKN,0.00,0.0,WeatherDisplay:10.37,2013-03-01 04:40:00,
2013-02-28 21:45:00,35.2,14.9,30.25,North,5,0.1,1.1,43,0.00,BKN,BKN,0.00,0.0,WeatherDisplay:10.37,2013-03-01 04:45:00,
2013-02-28 21:50:00,35.1,14.8,30.25,North,5,0.3,1.1,43,0.00,BKN,BKN,0.00,0.0,WeatherDisplay:10.37,2013-03-01 04:50:00,
2013-02-28 21:55:00,35.0,14.7,30.25,NW,306,0.1,2.3,43,0.00,BKN,BKN,0.00,0.0,WeatherDisplay:10.37,2013-03-01 04:55:00,
2013-02-28 22:00:00,34.9,15.2,30.25,NW,324,2.2,2.3,44,0.00,BKN,BKN,0.00,0.0,WeatherDisplay:10.37,2013-03-01 05:00:00,
2013-02-28 22:05:00,34.9,14.1,30.23,NW,313,2.1,4.6,42,0.00,BKN,BKN,0.00,0.0,WeatherDisplay:10.37,2013-03-01 05:05:00,
2013-02-28 22:06:00,35.0,14.2,30.23,NW,313,3.5,5.8,42,0.00,BKN,BKN,0.00,0.0,WeatherDisplay:10.37,2013-03-01 05:06:00,
2013-02-28 22:11:00,35.2,14.4,30.23,WNW,302,2.3,3.4,42,0.00,BKN,BKN,0.00,0.0,WeatherDisplay:10.37,2013-03-01 05:11:00,
2013-02-28 22:16:00,35.5,14.1,30.22,NW,322,4.7,10.3,41,0.00,BKN,BKN,0.00,0.0,WeatherDisplay:10.37,2013-03-01 05:16:00,
2013-02-28 22:21:00,35.7,14.3,30.21,WNW,295,2.1,3.4,41,0.00,BKN,BKN,0.00,0.0,WeatherDisplay:10.37,2013-03-01 05:21:00,
2013-02-28 22:26:00,35.8,14.4,30.20,WNW,283,4.2,5.8,41,0.00,BKN,BKN,0.00,0.0,WeatherDisplay:10.37,2013-03-01 05:26:00,
2013-02-28 22:31:00,36.0,14.5,30.20,NW,318,3.5,9.2,41,0.00,BKN,BKN,0.00,0.0,WeatherDisplay:10.37,2013-03-01 05:31:00,
2013-02-28 22:36:00,36.2,14.7,30.20,NW,313,1.7,3.4,41,0.00,BKN,BKN,0.00,0.0,WeatherDisplay:10.37,2013-03-01 05:36:00,
2013-02-28 22:41:00,36.2,14.7,30.19,WNW,296,1.6,3.4,41,0.00,BKN,BKN,0.00,0.0,WeatherDisplay:10.37,2013-03-01 05:41:00,
2013-02-28 22:46:00,36.2,14.7,30.19,WNW,299,0.4,2.3,41,0.00,BKN,BKN,0.00,0.0,WeatherDisplay:10.37,2013-03-01 05:46:00,
2013-02-28 22:51:00,36.1,15.2,30.20,WNW,299,0.1,2.0,42,0.00,BKN,BKN,0.00,0.0,WeatherDisplay:10.37,2013-03-01 05:51:00,
2013-02-28 22:56:00,35.9,15.0,30.20,WNW,299,1.4,3.4,42,0.00,BKN,BKN,0.00,0.0,WeatherDisplay:10.37,2013-03-01 05:56:00,
2013-02-28 23:01:00,35.6,15.3,30.20,NW,306,0.5,2.3,43,0.00,BKN,BKN,0.00,0.0,WeatherDisplay:10.37,2013-03-01 06:01:00,
2013-02-28 23:06:00,35.4,14.6,30.20,WNW,299,2.4,3.4,42,0.00,BKN,BKN,0.00,0.0,WeatherDisplay:10.37,2013-03-01 06:06:00,
2013-02-28 23:11:00,35.3,14.5,30.19,West,278,3.5,6.9,42,0.00,BKN,BKN,0.00,0.0,WeatherDisplay:10.37,2013-03-01 06:11:00,
2013-02-28 23:16:00,35.4,14.6,30.20,West,276,2.5,4.6,42,0.00,BKN,BKN,0.00,0.0,WeatherDisplay:10.37,2013-03-01 06:16:00,
2013-02-28 23:21:00,35.4,14.6,30.19,WNW,303,0.1,2.3,42,0.00,BKN,BKN,0.00,0.0,WeatherDisplay:10.37,2013-03-01 06:21:00,
2013-02-28 23:26:00,35.4,14.6,30.19,WNW,303,0.1,1.0,42,0.00,BKN,BKN,0.00,0.0,WeatherDisplay:10.37,2013-03-01 06:26:00,
2013-02-28 23:31:00,35.3,14.5,30.19,WNW,303,1.9,3.4,42,0.00,BKN,BKN,0.00,0.0,WeatherDisplay:10.37,2013-03-01 06:31:00,
2013-02-28 23:36:00,35.2,14.4,30.20,NW,304,1.8,3.4,42,0.00,BKN,BKN,0.00,0.0,WeatherDisplay:10.37,2013-03-01 06:36:00,
2013-02-28 23:41:00,35.1,14.3,30.20,NW,304,1.2,3.4,42,0.00,BKN,BKN,0.00,0.0,WeatherDisplay:10.37,2013-03-01 06:41:00,
2013-02-28 23:46:00,35.0,14.2,30.20,WNW,303,0.1,1.1,42,0.00,BKN,BKN,0.00,0.0,WeatherDisplay:10.37,2013-03-01 06:46:00,
2013-02-28 23:51:00,35.0,14.2,30.20,NW,310,0.8,3.4,42,0.00,BKN,BKN,0.00,0.0,WeatherDisplay:10.37,2013-03-01 06:51:00,
2013-02-28 23:56:00,35.0,14.2,30.21,WNW,302,0.5,3.4,42,0.00,BKN,BKN,0.00,0.0,WeatherDisplay:10.37,2013-03-01 06:56:00,